Medley, Florida
Current Conditions -  °F | °C
As of 8:14 AM on Friday 24 Oct 2014 (Local Time) from KMIA Reporting Station
Light Rain Light Rain  
Wind Chill: 75°   Ceiling: 2400
Heat Index: 75°   Visibility: 6mi
Dew Point: 72°   Wind: 12mph
Humidity: 90%   Direction: 40°NE
Pressure: 29.85"   Gusts: 18mph
Location:  25.8372°N, 80.3985°W
Report Text: KMIA 241214Z 04010G16KT 6SM -RA BR FEW011 BKN024 OVC030 24/22 A2985 RMK AO2 RAB09 P0000 T02390222
Loading
Personal Weather Stations






























Interactive Weather Map
Tropical Storm Tracking
New forecast layout! Learn more

10-Day Weather Forecast

Advertisements
Track Severe Weather on mobile